Time;durP1;ratioP1;P1;durP2;ratioP2;P2;SDS_P1;SDS_P2;PMS_P1;PMS_P2;Temp;Humidity;BMP_temperature;BMP_pressure;BME280_temperature;BME280_humidity;BME280_pressure;Samples;Min_cycle;Max_cycle;Signal;HPM_P1;HPM_P2
2024/03/23 00:01:50;;;;;;;1.10;0.93;;;;;;;4.43;94.11;99182.41;5086504;28;20028;-71
2024/03/23 00:04:17;;;;;;;24.48;1.83;;;;;;;4.42;94.15;99178.13;5085940;28;20048;-71
2024/03/23 00:06:43;;;;;;;5.38;1.33;;;;;;;4.43;94.05;99172.13;5085524;28;20036;-71
2024/03/23 00:09:10;;;;;;;1.27;1.27;;;;;;;4.43;94.10;99166.97;5086006;28;20039;-72
2024/03/23 00:11:37;;;;;;;6.65;1.92;;;;;;;4.45;94.33;99160.13;5084581;28;20033;-71
2024/03/23 00:14:07;;;;;;;8.57;2.88;;;;;;;4.44;94.01;99157.56;5084388;28;20026;-70
2024/03/23 00:16:34;;;;;;;3.47;1.02;;;;;;;4.49;94.18;99155.81;5084504;28;20044;-72
2024/03/23 00:19:00;;;;;;;0.50;0.50;;;;;;;4.49;94.29;99149.84;5085560;28;20052;-72
2024/03/23 00:21:27;;;;;;;3.60;1.38;;;;;;;4.51;93.93;99155.78;5084474;28;20052;-71
2024/03/23 00:23:53;;;;;;;1.85;1.15;;;;;;;4.51;94.32;99150.66;5085429;28;20078;-72
2024/03/23 00:26:20;;;;;;;2.78;1.60;;;;;;;4.53;93.86;99146.38;5085936;28;20294;-71
2024/03/23 00:28:46;;;;;;;6.40;1.15;;;;;;;4.58;94.11;99144.66;5085734;28;20025;-71
2024/03/23 00:31:13;;;;;;;5.10;2.25;;;;;;;4.61;94.32;99144.63;5085649;28;20027;-70
2024/03/23 00:33:39;;;;;;;4.70;1.30;;;;;;;4.66;94.38;99140.34;5085715;28;20031;-72
2024/03/23 00:36:06;;;;;;;4.68;2.53;;;;;;;4.69;94.21;99145.47;5085760;28;20029;-70
2024/03/23 00:38:32;;;;;;;2.60;1.27;;;;;;;4.66;94.23;99136.91;5084346;28;20476;-71
2024/03/23 00:40:58;;;;;;;11.68;3.15;;;;;;;4.64;93.82;99138.63;5085480;28;20024;-72
2024/03/23 00:43:26;;;;;;;10.35;3.33;;;;;;;4.65;93.85;99136.03;5085512;28;20020;-71
2024/03/23 00:45:52;;;;;;;5.43;1.77;;;;;;;4.59;93.59;99126.66;5085530;28;20096;-71
2024/03/23 00:48:18;;;;;;;1.27;1.27;;;;;;;4.57;93.21;99127.50;5067584;28;20043;-70
2024/03/23 00:50:45;;;;;;;1.42;1.35;;;;;;;4.56;93.46;99123.22;5084257;28;20047;-72
2024/03/23 00:53:11;;;;;;;7.43;3.67;;;;;;;4.50;92.93;99120.69;5085546;28;20029;-70
2024/03/23 00:55:36;;;;;;;10.95;2.13;;;;;;;4.45;93.13;99113.00;5085597;28;20021;-71
2024/03/23 00:58:02;;;;;;;0.68;0.68;;;;;;;4.42;93.28;99111.31;5085321;28;20029;-71
2024/03/23 01:00:27;;;;;;;18.33;2.13;;;;;;;4.49;93.32;99121.56;5085328;28;20430;-70
2024/03/23 01:02:53;;;;;;;2.72;2.53;;;;;;;4.45;93.42;99113.88;5084269;28;20040;-70
2024/03/23 01:05:19;;;;;;;0.68;0.68;;;;;;;4.40;93.14;99099.31;5085447;28;20044;-70
2024/03/23 01:07:44;;;;;;;2.25;1.33;;;;;;;4.45;93.15;99105.28;5085369;28;20369;-70
2024/03/23 01:10:09;;;;;;;5.63;2.10;;;;;;;4.46;93.25;99094.13;5085414;28;20028;-70
2024/03/23 01:12:35;;;;;;;5.00;1.92;;;;;;;4.52;93.21;99101.81;5085371;28;20090;-72
2024/03/23 01:15:00;;;;;;;2.35;1.25;;;;;;;4.54;93.30;99094.09;5085145;28;20028;-71
2024/03/23 01:17:25;;;;;;;2.25;1.50;;;;;;;4.59;93.79;99095.81;5085485;28;20033;-71
2024/03/23 01:19:51;;;;;;;6.35;2.88;;;;;;;4.55;93.42;99096.66;5088549;28;20079;-70
2024/03/23 01:22:16;;;;;;;18.27;4.00;;;;;;;4.55;93.45;99091.53;5089077;28;20021;-71
2024/03/23 01:24:41;;;;;;;5.25;1.52;;;;;;;4.59;93.63;99084.66;5089102;28;20104;-70
2024/03/23 01:27:08;;;;;;;2.28;1.02;;;;;;;4.56;93.42;99089.81;5088831;28;20464;-70
2024/03/23 01:29:33;;;;;;;7.30;1.98;;;;;;;4.47;93.06;99085.59;5088881;28;20472;-70
2024/03/23 01:31:58;;;;;;;6.72;2.05;;;;;;;4.46;93.28;99083.84;5088908;28;20024;-71
2024/03/23 01:34:24;;;;;;;9.25;1.90;;;;;;;4.32;93.42;99064.22;5088915;28;20034;-70
2024/03/23 01:36:50;;;;;;;3.20;1.30;;;;;;;4.39;93.27;99083.06;5088816;28;20484;-71
2024/03/23 01:39:16;;;;;;;8.27;5.72;;;;;;;4.35;93.51;99071.06;5088858;28;20084;-71
2024/03/23 01:41:42;;;;;;;2.80;0.98;;;;;;;4.32;93.85;99071.06;5088570;28;20031;-71
2024/03/23 01:44:08;;;;;;;2.42;2.25;;;;;;;4.31;93.81;99071.94;5088588;28;20029;-72
2024/03/23 01:46:35;;;;;;;8.70;1.88;;;;;;;4.29;93.79;99060.81;5088727;28;20028;-71
2024/03/23 01:49:01;;;;;;;0.85;0.85;;;;;;;4.21;93.80;99061.72;5088671;28;20107;-70
2024/03/23 01:51:28;;;;;;;6.53;2.72;;;;;;;4.16;93.62;99054.88;5087130;28;20208;-70
2024/03/23 01:53:54;;;;;;;10.45;3.45;;;;;;;4.06;93.76;99054.91;5087188;28;20032;-70
2024/03/23 01:56:20;;;;;;;1.65;1.52;;;;;;;4.00;94.05;99054.06;5088490;28;20099;-70
2024/03/23 01:58:46;;;;;;;15.52;2.95;;;;;;;3.88;93.88;99045.56;5088509;28;20047;-70
2024/03/23 02:01:11;;;;;;;43.30;3.47;;;;;;;3.85;94.16;99050.69;5088311;28;20025;-70
2024/03/23 02:03:36;;;;;;;3.85;1.65;;;;;;;3.84;94.28;99044.72;5088309;28;20027;-71
2024/03/23 02:06:02;;;;;;;1.42;1.30;;;;;;;3.75;94.23;99044.75;5086769;28;20024;-70
2024/03/23 02:08:29;;;;;;;10.27;1.35;;;;;;;3.68;94.65;99035.34;5088306;28;20391;-72
2024/03/23 02:10:54;;;;;;;2.35;2.00;;;;;;;3.68;94.67;99037.91;5088477;28;20449;-71
2024/03/23 02:13:20;;;;;;;6.85;1.77;;;;;;;3.66;95.21;99035.34;5089083;28;20046;-71
2024/03/23 02:15:45;;;;;;;0.82;0.68;;;;;;;3.63;95.19;99037.03;5088570;28;20106;-70
2024/03/23 02:18:11;;;;;;;13.10;1.80;;;;;;;3.55;95.55;99025.09;5088256;28;20035;-71
2024/03/23 02:20:37;;;;;;;5.30;1.45;;;;;;;3.57;95.69;99032.78;5088137;28;20024;-70
2024/03/23 02:23:12;;;;;;;1.25;1.25;;;;;;;3.55;96.06;99021.66;5088264;28;20045;-71
2024/03/23 02:25:38;;;;;;;0.82;0.82;;;;;;;3.54;96.10;99020.84;5088120;28;20147;-70
2024/03/23 02:28:03;;;;;;;0.88;0.88;;;;;;;3.56;96.29;99015.69;5087971;28;20423;-71
2024/03/23 02:30:29;;;;;;;4.20;2.20;;;;;;;3.56;96.56;99013.97;5087315;28;20050;-70
2024/03/23 02:32:54;;;;;;;3.80;1.88;;;;;;;3.54;96.49;99018.28;5086659;28;20025;-70
2024/03/23 02:35:19;;;;;;;3.97;2.28;;;;;;;3.52;96.49;99011.41;5087822;28;20040;-70
2024/03/23 02:37:46;;;;;;;4.95;1.92;;;;;;;3.54;97.04;99014.84;5087789;28;20126;-70
2024/03/23 02:40:11;;;;;;;0.55;0.55;;;;;;;3.51;96.98;99009.72;5087633;28;20098;-69
2024/03/23 02:42:37;;;;;;;1.90;1.58;;;;;;;3.48;97.10;99002.88;5087591;28;20047;-69
2024/03/23 02:45:04;;;;;;;1.55;1.13;;;;;;;3.46;97.46;99014.84;5087546;28;20050;-69
2024/03/23 02:47:30;;;;;;;2.30;1.77;;;;;;;3.43;97.46;99015.72;5087685;28;20070;-71
2024/03/23 02:49:55;;;;;;;3.42;2.55;;;;;;;3.37;97.68;98995.19;5087486;28;20024;-70
2024/03/23 02:52:21;;;;;;;1.15;1.05;;;;;;;3.48;97.77;99010.59;5087538;28;20016;-70
2024/03/23 02:54:46;;;;;;;0.70;0.70;;;;;;;3.51;97.69;99002.88;5087482;28;20020;-70
2024/03/23 02:57:11;;;;;;;0.55;0.55;;;;;;;3.39;98.04;98993.47;5086085;28;20021;-70
2024/03/23 02:59:36;;;;;;;2.47;1.67;;;;;;;3.47;97.98;99006.28;5087009;28;20079;-69
2024/03/23 03:02:04;;;;;;;1.85;1.58;;;;;;;3.49;98.17;98998.59;5087258;28;20024;-70
2024/03/23 03:04:29;;;;;;;15.73;2.65;;;;;;;3.49;98.56;98996.03;5087262;28;20021;-70
2024/03/23 03:06:55;;;;;;;1.08;1.00;;;;;;;3.53;98.43;98990.03;5087218;28;20381;-70
2024/03/23 03:09:21;;;;;;;2.20;1.55;;;;;;;3.58;98.60;98981.47;5087230;28;20024;-69
2024/03/23 03:11:46;;;;;;;9.63;1.30;;;;;;;3.57;98.33;98973.75;5085641;28;20024;-71
2024/03/23 03:14:12;;;;;;;10.13;2.92;;;;;;;3.51;98.22;98968.66;5086779;28;20016;-69
2024/03/23 03:16:37;;;;;;;0.77;0.77;;;;;;;3.54;98.22;98976.34;5087015;28;20027;-70
2024/03/23 03:19:03;;;;;;;3.03;0.90;;;;;;;3.54;98.60;98968.66;5086564;28;20090;-70
2024/03/23 03:21:28;;;;;;;6.57;2.50;;;;;;;3.57;98.67;98961.81;5086750;28;20048;-69
2024/03/23 03:23:56;;;;;;;8.27;3.63;;;;;;;3.59;98.52;98956.66;5086817;28;20024;-71
2024/03/23 03:26:21;;;;;;;0.98;0.90;;;;;;;3.60;98.58;98966.06;5085413;28;20070;-69
2024/03/23 03:28:48;;;;;;;1.55;1.30;;;;;;;3.53;98.42;98949.81;5086677;28;20029;-70
2024/03/23 03:31:15;;;;;;;4.10;0.95;;;;;;;3.51;98.37;98953.25;5086663;28;20046;-69
2024/03/23 03:33:40;;;;;;;0.50;0.50;;;;;;;3.49;98.50;98953.25;5086570;28;20024;-70
2024/03/23 03:36:06;;;;;;;1.55;1.05;;;;;;;3.44;98.33;98940.44;5086599;28;20028;-69
2024/03/23 03:38:31;;;;;;;0.50;0.50;;;;;;;3.41;98.58;98935.34;5086356;28;20103;-70
2024/03/23 03:40:58;;;;;;;6.38;2.05;;;;;;;3.40;98.69;98938.75;5085687;28;20039;-70
2024/03/23 03:43:24;;;;;;;1.13;0.47;;;;;;;3.37;98.67;98925.91;5086394;28;20029;-69
2024/03/23 03:45:57;;;;;;;1.38;0.80;;;;;;;3.42;98.65;98933.63;5086201;28;20024;-69
2024/03/23 03:48:23;;;;;;;5.47;1.48;;;;;;;3.40;98.84;98928.50;5086396;28;20505;-71
2024/03/23 03:50:49;;;;;;;1.25;1.15;;;;;;;3.37;98.73;98931.03;5086347;28;20460;-69
2024/03/23 03:53:14;;;;;;;1.23;1.13;;;;;;;3.35;99.02;98936.19;5086272;28;20059;-70
2024/03/23 03:55:40;;;;;;;3.70;1.30;;;;;;;3.31;99.07;98913.09;5086276;28;20048;-69
2024/03/23 03:58:05;;;;;;;2.33;1.27;;;;;;;3.35;98.84;98918.22;5084884;28;20049;-70
2024/03/23 04:00:31;;;;;;;5.35;2.28;;;;;;;3.32;99.09;98922.53;5086051;28;20078;-70
2024/03/23 04:02:57;;;;;;;0.60;0.60;;;;;;;3.05;99.16;98881.53;5084789;28;20031;-70
2024/03/23 04:05:22;;;;;;;4.30;1.42;;;;;;;3.24;99.12;98914.00;5086089;28;20084;-70
2024/03/23 04:07:48;;;;;;;5.80;0.95;;;;;;;3.29;99.20;98922.53;5084753;28;20361;-70
2024/03/23 04:10:14;;;;;;;2.05;0.70;;;;;;;3.25;99.34;98913.13;5086007;28;20025;-69
2024/03/23 04:12:40;;;;;;;8.20;1.30;;;;;;;3.21;99.41;98907.19;5085630;28;20023;-69
2024/03/23 04:15:05;;;;;;;0.70;0.70;;;;;;;3.20;99.67;98906.31;5085963;28;20029;-69
2024/03/23 04:17:32;;;;;;;14.50;2.35;;;;;;;3.16;99.73;98893.50;5086009;28;20033;-69
2024/03/23 04:19:58;;;;;;;0.50;0.50;;;;;;;3.22;100.00;98903.75;5085719;28;20049;-69
2024/03/23 04:22:26;;;;;;;1.35;0.50;;;;;;;3.26;99.90;98907.16;5085906;28;20067;-70
2024/03/23 04:24:56;;;;;;;14.10;1.30;;;;;;;3.25;100.00;98908.00;5085911;28;20025;-69
2024/03/23 04:27:23;;;;;;;3.08;2.05;;;;;;;3.19;100.00;98896.91;5085837;28;20082;-69
2024/03/23 04:29:49;;;;;;;13.00;1.50;;;;;;;3.19;100.00;98896.91;5084599;28;20050;-69
2024/03/23 04:32:15;;;;;;;5.10;0.70;;;;;;;3.23;100.00;98887.47;5086076;28;20051;-69
2024/03/23 04:34:41;;;;;;;1.05;1.00;;;;;;;3.24;100.00;98891.78;5085753;28;20024;-69
2024/03/23 04:37:07;;;;;;;3.13;1.55;;;;;;;3.20;100.00;98882.38;5085645;28;20389;-69
2024/03/23 04:39:32;;;;;;;0.80;0.80;;;;;;;3.08;100.00;98863.59;5085771;28;20032;-70
2024/03/23 04:41:58;;;;;;;1.05;1.05;;;;;;;3.14;100.00;98862.72;5085573;28;20024;-70
2024/03/23 04:44:23;;;;;;;1.20;1.20;;;;;;;3.16;100.00;98881.53;5085600;28;20028;-69
2024/03/23 04:46:48;;;;;;;0.40;0.40;;;;;;;3.18;100.00;98878.97;5085938;28;20383;-70
2024/03/23 04:49:14;;;;;;;9.95;1.88;;;;;;;3.15;100.00;98873.81;5084295;28;20029;-69
2024/03/23 04:51:41;;;;;;;41.10;1.95;;;;;;;3.17;100.00;98877.25;5085721;28;20047;-70
2024/03/23 04:54:07;;;;;;;16.27;1.27;;;;;;;3.19;100.00;98878.09;5089768;28;20021;-69
2024/03/23 04:56:32;;;;;;;2.65;1.58;;;;;;;3.13;100.00;98868.69;5089618;28;20547;-69
2024/03/23 04:59:01;;;;;;;1.08;1.08;;;;;;;3.15;100.00;98878.94;5089612;28;20035;-69
2024/03/23 05:01:27;;;;;;;0.60;0.60;;;;;;;3.10;100.00;98872.13;5089441;28;20031;-69
2024/03/23 05:03:52;;;;;;;1.23;1.23;;;;;;;3.17;100.00;98877.25;5088321;28;20024;-69
2024/03/23 05:06:18;;;;;;;0.40;0.40;;;;;;;3.13;100.00;98867.88;5089488;28;20022;-71
2024/03/23 05:08:43;;;;;;;1.00;1.00;;;;;;;3.15;100.00;98871.25;5089485;28;20487;-69
2024/03/23 05:11:09;;;;;;;8.13;3.20;;;;;;;3.10;100.00;98863.59;5089255;28;20452;-70
2024/03/23 05:13:34;;;;;;;4.43;1.13;;;;;;;3.20;100.00;98878.09;5089353;28;20052;-69
2024/03/23 05:15:59;;;;;;;6.63;3.15;;;;;;;3.24;100.00;98867.81;5089173;28;20037;-69
2024/03/23 05:18:26;;;;;;;5.28;2.20;;;;;;;3.28;100.00;98869.50;5088986;28;20028;-68
2024/03/23 05:20:57;;;;;;;5.78;2.55;;;;;;;3.12;100.00;98841.34;5089143;28;20032;-69
2024/03/23 05:23:22;;;;;;;1.70;1.60;;;;;;;3.32;100.00;98856.66;5089111;28;20027;-69
2024/03/23 05:25:48;;;;;;;0.52;0.52;;;;;;;3.39;100.00;98854.94;5087692;28;20020;-69
2024/03/23 05:28:13;;;;;;;1.58;1.30;;;;;;;3.43;100.00;98848.94;5089052;28;20044;-69
2024/03/23 05:30:39;;;;;;;1.05;1.05;;;;;;;3.45;100.00;98844.66;5088846;28;20024;-69
2024/03/23 05:33:05;;;;;;;0.70;0.70;;;;;;;3.53;100.00;98852.31;5089093;28;20024;-68
2024/03/23 05:35:30;;;;;;;0.82;0.82;;;;;;;3.57;100.00;98851.44;5087487;28;20396;-69
2024/03/23 05:37:56;;;;;;;7.10;2.10;;;;;;;3.62;100.00;98853.13;5088885;28;20046;-69
2024/03/23 05:40:21;;;;;;;2.47;1.25;;;;;;;3.63;100.00;98847.97;5088803;28;20035;-68
2024/03/23 05:42:46;;;;;;;22.35;4.78;;;;;;;3.72;100.00;98850.50;5088659;28;20480;-69
2024/03/23 05:45:12;;;;;;;3.10;0.77;;;;;;;3.75;100.00;98843.66;5088625;28;20021;-69
2024/03/23 05:47:37;;;;;;;4.25;2.80;;;;;;;3.76;100.00;98840.22;5087333;28;20027;-69
2024/03/23 05:50:03;;;;;;;2.15;1.50;;;;;;;3.79;100.00;98847.91;5088765;28;20437;-69
2024/03/23 05:52:29;;;;;;;4.88;2.58;;;;;;;3.82;100.00;98842.75;5088583;28;20520;-69
2024/03/23 05:54:55;;;;;;;0.98;0.98;;;;;;;3.84;100.00;98841.03;5088644;28;20046;-70
2024/03/23 05:57:20;;;;;;;1.02;0.93;;;;;;;3.90;100.00;98840.97;5087078;28;20020;-70
2024/03/23 05:59:46;;;;;;;12.68;1.67;;;;;;;3.99;100.00;98840.09;5088328;28;20020;-69
2024/03/23 06:02:11;;;;;;;0.40;0.40;;;;;;;4.04;100.00;98842.63;5088353;28;20029;-69
2024/03/23 06:04:37;;;;;;;0.40;0.40;;;;;;;4.04;100.00;98834.91;5087455;28;20103;-70
2024/03/23 06:07:02;;;;;;;0.40;0.40;;;;;;;4.06;100.00;98834.03;5088414;28;20028;-70
2024/03/23 06:09:31;;;;;;;3.03;0.85;;;;;;;4.08;100.00;98834.03;5087017;28;20024;-69
2024/03/23 06:11:56;;;;;;;5.47;1.95;;;;;;;4.12;100.00;98829.72;5086642;28;20340;-70
2024/03/23 06:14:22;;;;;;;0.85;0.85;;;;;;;4.21;100.00;98834.78;5088294;28;20016;-69
2024/03/23 06:16:47;;;;;;;0.43;0.43;;;;;;;4.19;100.00;98814.25;5088247;28;20048;-72
2024/03/23 06:19:12;;;;;;;4.20;2.55;;;;;;;4.34;100.00;98827.84;5087967;28;20055;-70
2024/03/23 06:21:43;;;;;;;0.40;0.40;;;;;;;4.33;100.00;98815.84;5087946;28;20029;-71
2024/03/23 06:24:08;;;;;;;8.32;1.80;;;;;;;4.37;100.00;98822.66;5088173;28;20032;-70
2024/03/23 06:26:34;;;;;;;3.13;2.83;;;;;;;4.39;100.00;98815.81;5088024;28;20029;-72
2024/03/23 06:28:59;;;;;;;0.82;0.82;;;;;;;4.53;100.00;98812.25;5087884;28;20027;-70
2024/03/23 06:31:24;;;;;;;2.60;1.58;;;;;;;4.77;100.00;98811.16;5087917;28;20087;-71
2024/03/23 06:33:50;;;;;;;3.20;1.95;;;;;;;4.90;100.00;98804.16;5087727;28;20021;-70
2024/03/23 06:36:15;;;;;;;20.48;2.10;;;;;;;5.08;99.49;98820.22;5087746;28;20577;-71
2024/03/23 06:38:40;;;;;;;3.30;2.63;;;;;;;5.14;98.41;98819.31;5087740;28;20029;-71
2024/03/23 06:41:06;;;;;;;0.63;0.63;;;;;;;5.17;98.11;98809.88;5087754;28;20480;-71
2024/03/23 06:43:31;;;;;;;17.25;1.40;;;;;;;5.21;96.95;98823.53;5087870;28;20020;-71
2024/03/23 06:45:57;;;;;;;2.67;2.03;;;;;;;5.25;96.60;98821.78;5087418;28;20086;-70
2024/03/23 06:48:22;;;;;;;0.82;0.82;;;;;;;5.37;95.96;98815.63;5086552;28;20028;-71
2024/03/23 06:50:48;;;;;;;3.55;2.55;;;;;;;5.56;96.20;98817.06;5087437;28;20024;-71
2024/03/23 06:53:14;;;;;;;4.05;1.98;;;;;;;5.98;96.65;98812.19;5087521;28;20350;-73
2024/03/23 06:55:41;;;;;;;2.38;1.23;;;;;;;6.60;95.50;98816.38;5087296;28;20025;-73
2024/03/23 06:58:06;;;;;;;1.75;1.65;;;;;;;6.94;90.92;98809.75;5087225;28;20027;-72
2024/03/23 07:00:32;;;;;;;21.75;3.58;;;;;;;7.28;87.94;98810.81;5087186;28;20040;-72
2024/03/23 07:02:58;;;;;;;2.45;1.80;;;;;;;7.67;86.80;98809.97;5087146;28;20025;-72
2024/03/23 07:05:23;;;;;;;8.98;1.45;;;;;;;7.76;83.53;98814.09;5087235;28;20473;-73
2024/03/23 07:07:49;;;;;;;8.88;2.25;;;;;;;7.93;84.51;98817.13;5087144;28;20036;-73
2024/03/23 07:10:14;;;;;;;4.22;1.63;;;;;;;8.18;81.63;98816.53;5086958;28;20049;-72
2024/03/23 07:12:40;;;;;;;19.05;2.58;;;;;;;8.38;80.83;98819.53;5085792;28;20020;-72
2024/03/23 07:15:05;;;;;;;14.30;2.95;;;;;;;8.62;80.54;98815.50;5086856;28;20055;-73
2024/03/23 07:17:32;;;;;;;5.05;2.50;;;;;;;8.49;78.18;98803.72;5086948;28;20473;-73
2024/03/23 07:19:57;;;;;;;6.93;1.90;;;;;;;8.12;77.34;98814.13;5085550;28;20051;-73
2024/03/23 07:22:24;;;;;;;0.73;0.73;;;;;;;7.97;77.64;98807.56;5086685;28;20020;-74
2024/03/23 07:24:49;;;;;;;13.18;1.80;;;;;;;7.88;77.75;98818.13;5085400;28;20021;-72
2024/03/23 07:27:14;;;;;;;2.78;1.10;;;;;;;7.58;77.20;98816.19;5086698;28;20108;-72
2024/03/23 07:29:40;;;;;;;13.13;2.22;;;;;;;7.38;78.17;98812.28;5086526;28;20552;-72
2024/03/23 07:32:05;;;;;;;3.40;2.70;;;;;;;7.17;78.36;98811.84;5085301;28;20080;-72
2024/03/23 07:34:30;;;;;;;1.00;1.00;;;;;;;6.90;78.48;98811.53;5086532;28;20054;-72
2024/03/23 07:36:56;;;;;;;3.38;1.63;;;;;;;6.69;79.64;98811.03;5086536;28;20020;-72
2024/03/23 07:39:21;;;;;;;3.30;1.58;;;;;;;6.88;81.98;98805.56;5085126;28;20039;-73
2024/03/23 07:41:46;;;;;;;2.75;0.60;;;;;;;7.14;81.93;98793.03;5086515;28;20021;-72
2024/03/23 07:44:12;;;;;;;11.85;2.08;;;;;;;7.36;79.91;98800.31;5085077;28;20103;-72
2024/03/23 07:46:38;;;;;;;4.30;1.83;;;;;;;7.41;80.18;98796.75;5086401;28;20021;-72
2024/03/23 07:49:06;;;;;;;2.17;1.38;;;;;;;7.57;80.33;98801.59;5086342;28;20107;-73
2024/03/23 07:51:32;;;;;;;15.40;1.65;;;;;;;7.53;78.21;98787.03;5084909;28;20025;-72
2024/03/23 07:53:58;;;;;;;1.00;0.98;;;;;;;7.41;78.59;98795.91;5086285;28;20054;-74
2024/03/23 07:56:24;;;;;;;2.03;1.80;;;;;;;7.06;78.45;98773.38;5086263;28;20036;-72
2024/03/23 07:58:49;;;;;;;20.63;1.35;;;;;;;6.84;78.28;98791.00;5086256;28;20024;-72
2024/03/23 08:01:16;;;;;;;0.57;0.57;;;;;;;6.60;79.43;98800.91;5085933;28;20020;-72
2024/03/23 08:03:45;;;;;;;7.03;1.13;;;;;;;6.36;80.04;98803.03;5086186;28;20143;-72
2024/03/23 08:06:22;;;;;;;4.70;2.97;;;;;;;6.06;80.70;98805.22;5085987;28;20026;-73
2024/03/23 08:09:01;;;;;;;7.63;2.03;;;;;;;5.94;81.62;98799.34;5086037;28;20020;-73
2024/03/23 08:11:30;;;;;;;3.30;1.38;;;;;;;5.79;82.55;98797.03;5086058;28;20023;-73
2024/03/23 08:13:56;;;;;;;1.45;1.35;;;;;;;5.84;83.53;98792.66;5085955;28;20033;-74
2024/03/23 08:16:22;;;;;;;0.60;0.60;;;;;;;5.88;83.29;98794.31;5085874;28;20020;-73
2024/03/23 08:18:48;;;;;;;4.82;1.67;;;;;;;5.87;83.26;98787.47;5084448;28;20194;-73
2024/03/23 08:21:13;;;;;;;13.45;1.98;;;;;;;5.86;83.63;98801.22;5086149;28;20453;-73
2024/03/23 08:23:39;;;;;;;1.67;1.58;;;;;;;5.92;83.73;98790.81;5085904;28;20035;-75
2024/03/23 08:26:06;;;;;;;0.40;0.40;;;;;;;5.98;84.08;98783.84;5086025;28;20021;-73
2024/03/23 08:28:32;;;;;;;0.40;0.40;;;;;;;5.91;83.65;98781.38;5084122;28;20495;-73
2024/03/23 08:31:01;;;;;;;6.75;1.60;;;;;;;5.90;83.96;98790.00;5085523;28;20032;-74
2024/03/23 08:33:26;;;;;;;13.13;0.93;;;;;;;5.86;84.44;98778.03;5085731;28;20028;-73
2024/03/23 08:36:03;;;;;;;10.57;1.98;;;;;;;6.11;85.12;98787.97;5085773;28;20056;-74
2024/03/23 08:38:29;;;;;;;3.22;0.55;;;;;;;6.61;85.79;98794.03;5084289;28;20017;-73
2024/03/23 08:40:57;;;;;;;1.15;0.63;;;;;;;6.91;84.35;98787.44;5085706;28;20056;-74
2024/03/23 08:43:23;;;;;;;2.88;1.60;;;;;;;7.06;82.75;98793.19;5085672;28;20040;-74
2024/03/23 08:45:48;;;;;;;2.65;1.23;;;;;;;7.18;82.05;98792.94;5085513;28;20024;-73
2024/03/23 08:48:14;;;;;;;13.75;1.70;;;;;;;7.32;81.00;98790.06;5085894;28;20443;-74
2024/03/23 08:50:39;;;;;;;10.15;1.65;;;;;;;7.47;79.69;98787.16;5085825;28;20029;-73
2024/03/23 08:53:04;;;;;;;1.52;1.25;;;;;;;7.39;77.89;98795.09;5085991;28;20021;-73
2024/03/23 08:55:30;;;;;;;8.43;3.47;;;;;;;7.32;78.28;98789.19;5086089;28;20032;-75
2024/03/23 08:57:55;;;;;;;4.03;2.03;;;;;;;7.17;77.37;98796.38;5085645;28;20021;-74
2024/03/23 09:00:21;;;;;;;6.18;3.80;;;;;;;6.96;77.52;98799.38;5086403;28;20020;-74
2024/03/23 09:02:50;;;;;;;1.15;0.98;;;;;;;6.74;78.19;98798.06;5086065;28;20044;-74
2024/03/23 09:05:15;;;;;;;6.93;1.48;;;;;;;6.74;78.38;98797.22;5085387;28;20024;-73
2024/03/23 09:07:40;;;;;;;0.80;0.80;;;;;;;6.64;78.81;98799.13;5085518;28;20047;-75
2024/03/23 09:10:07;;;;;;;2.30;2.00;;;;;;;6.51;78.72;98801.94;5085418;28;20037;-73
2024/03/23 09:12:33;;;;;;;1.20;0.85;;;;;;;6.45;79.47;98799.47;5085313;28;20021;-74
2024/03/23 09:14:58;;;;;;;5.72;1.80;;;;;;;6.41;79.26;98793.50;5085368;28;20059;-75
2024/03/23 09:17:23;;;;;;;5.65;2.38;;;;;;;6.31;79.30;98790.22;5085386;28;20048;-73
2024/03/23 09:19:49;;;;;;;5.15;3.42;;;;;;;6.29;79.50;98794.53;5085219;28;20068;-73
2024/03/23 09:22:14;;;;;;;3.03;0.90;;;;;;;6.17;79.43;98803.34;5085342;28;20098;-74
2024/03/23 09:24:40;;;;;;;0.40;0.40;;;;;;;6.02;79.77;98793.25;5085258;28;20028;-74
2024/03/23 09:27:05;;;;;;;7.97;0.90;;;;;;;5.92;80.28;98793.41;5085390;28;20582;-74
2024/03/23 09:29:30;;;;;;;1.00;1.00;;;;;;;5.87;80.57;98789.19;5085096;28;20431;-71
2024/03/23 09:31:56;;;;;;;8.40;1.25;;;;;;;5.83;81.06;98798.69;5085480;28;20038;-75
2024/03/23 09:34:21;;;;;;;4.03;1.50;;;;;;;5.70;81.14;98798.84;5085411;28;20479;-74
2024/03/23 09:36:50;;;;;;;1.70;1.60;;;;;;;5.66;81.77;98798.91;5085211;28;20037;-74
2024/03/23 09:39:15;;;;;;;0.40;0.40;;;;;;;5.55;82.09;98791.34;5086140;28;20044;-74
2024/03/23 09:41:41;;;;;;;1.45;1.23;;;;;;;5.57;82.50;98794.75;5088797;28;20031;-74
2024/03/23 09:44:07;;;;;;;6.22;2.92;;;;;;;5.53;82.81;98793.09;5088887;28;20032;-73
2024/03/23 09:46:34;;;;;;;10.95;3.38;;;;;;;5.55;83.04;98793.94;5088577;28;20029;-73
2024/03/23 09:49:00;;;;;;;7.43;3.22;;;;;;;5.55;82.98;98799.06;5088514;28;20029;-73
2024/03/23 09:51:25;;;;;;;0.50;0.50;;;;;;;5.44;83.34;98787.22;5088835;28;20024;-74
2024/03/23 09:53:53;;;;;;;0.95;0.82;;;;;;;5.51;83.44;98798.25;5088688;28;20050;-73
2024/03/23 09:56:18;;;;;;;5.15;2.10;;;;;;;5.50;83.60;98788.84;5088704;28;20072;-73
2024/03/23 09:58:43;;;;;;;3.47;1.55;;;;;;;5.54;83.69;98790.50;5088547;28;20048;-73
2024/03/23 10:01:09;;;;;;;2.72;2.25;;;;;;;5.67;83.58;98800.66;5086999;28;20033;-75
2024/03/23 10:03:45;;;;;;;11.75;2.15;;;;;;;5.64;83.58;98793.78;5088489;28;20025;-74
2024/03/23 10:06:10;;;;;;;0.70;0.70;;;;;;;5.52;83.70;98793.97;5088742;28;20031;-74
2024/03/23 10:08:36;;;;;;;1.33;1.25;;;;;;;5.45;83.75;98783.75;5087276;28;20096;-73
2024/03/23 10:11:22;;;;;;;15.13;2.97;;;;;;;5.33;83.91;98786.50;5087357;28;20066;-73
2024/03/23 10:13:48;;;;;;;0.70;0.70;;;;;;;5.31;84.06;98783.09;5088100;28;20036;-72
2024/03/23 10:16:22;;;;;;;1.65;1.55;;;;;;;5.15;84.65;98788.44;5088133;28;20107;-72
2024/03/23 10:18:48;;;;;;;5.38;2.58;;;;;;;5.15;84.91;98795.28;5088121;28;20068;-72
2024/03/23 10:21:14;;;;;;;1.67;0.73;;;;;;;5.00;85.84;98773.19;5086708;28;20050;-72
2024/03/23 10:23:42;;;;;;;4.00;1.33;;;;;;;5.21;87.05;98795.22;5086917;28;20036;-71
2024/03/23 10:26:21;;;;;;;2.50;1.58;;;;;;;5.31;87.45;98786.53;5087828;28;20020;-71
2024/03/23 10:29:01;;;;;;;1.13;1.05;;;;;;;5.45;87.89;98786.34;5088127;28;20024;-72
2024/03/23 10:31:31;;;;;;;7.07;2.33;;;;;;;5.56;87.46;98787.91;5087677;28;20027;-71
2024/03/23 10:33:56;;;;;;;5.32;2.47;;;;;;;5.67;87.20;98790.34;5087799;28;20039;-73
2024/03/23 10:36:23;;;;;;;8.88;0.95;;;;;;;5.69;87.41;98784.28;5087803;28;20024;-72
2024/03/23 10:38:50;;;;;;;1.23;1.13;;;;;;;5.80;87.29;98788.41;5087901;28;20107;-72
2024/03/23 10:41:16;;;;;;;13.15;1.38;;;;;;;5.81;87.02;98780.66;5087699;28;20047;-72
2024/03/23 10:43:43;;;;;;;6.90;2.15;;;;;;;5.89;86.53;98778.00;5087698;28;20025;-74
2024/03/23 10:46:09;;;;;;;7.13;1.83;;;;;;;6.12;86.85;98784.53;5087654;28;20024;-73
2024/03/23 10:48:34;;;;;;;3.03;1.58;;;;;;;6.52;87.17;98774.41;5087486;28;20430;-74
2024/03/23 10:51:00;;;;;;;3.70;2.03;;;;;;;6.99;86.65;98768.38;5087153;28;20021;-73
2024/03/23 10:53:27;;;;;;;6.85;1.52;;;;;;;7.32;84.90;98773.69;5087185;28;20028;-73
2024/03/23 10:55:54;;;;;;;10.93;3.45;;;;;;;7.93;85.08;98769.78;5087153;28;20029;-73
2024/03/23 10:58:33;;;;;;;3.22;1.45;;;;;;;8.32;83.23;98761.06;5087314;28;20028;-73
2024/03/23 11:00:58;;;;;;;0.50;0.50;;;;;;;8.47;78.68;98757.22;5087183;28;20052;-76
2024/03/23 11:03:34;;;;;;;2.40;1.25;;;;;;;8.18;76.81;98759.69;5085868;28;20076;-75
2024/03/23 11:06:00;;;;;;;6.22;1.60;;;;;;;7.89;76.39;98761.22;5087345;28;20503;-74
2024/03/23 11:08:40;;;;;;;5.28;0.98;;;;;;;7.60;76.41;98762.78;5087096;28;20056;-77
2024/03/23 11:11:26;;;;;;;1.50;1.15;;;;;;;7.36;76.49;98771.91;5087150;28;20029;-74
2024/03/23 11:13:52;;;;;;;8.45;0.93;;;;;;;7.15;76.62;98764.59;5085720;28;20077;-75
2024/03/23 11:16:27;;;;;;;7.93;1.35;;;;;;;7.05;76.59;98763.06;5086873;28;20028;-76
2024/03/23 11:18:52;;;;;;;6.72;1.83;;;;;;;7.46;77.96;98751.91;5086788;28;20048;-74
2024/03/23 11:21:55;;;;;;;0.50;0.50;;;;;;;8.06;74.91;98757.41;5086943;28;20017;-76
2024/03/23 11:24:22;;;;;;;15.55;1.23;;;;;;;7.85;73.94;98756.19;5086891;28;20035;-75
2024/03/23 11:26:48;;;;;;;3.20;1.92;;;;;;;7.61;73.52;98753.28;5085392;28;20092;-74
2024/03/23 11:29:15;;;;;;;1.27;0.98;;;;;;;7.51;74.15;98760.38;5086841;28;20024;-76
2024/03/23 11:31:48;;;;;;;20.23;2.60;;;;;;;7.53;74.61;98751.72;5085238;28;20395;-75
2024/03/23 11:34:15;;;;;;;1.30;1.02;;;;;;;7.76;74.55;98745.19;5086820;28;20032;-75
2024/03/23 11:36:41;;;;;;;4.15;1.48;;;;;;;8.28;74.33;98757.72;5084900;28;20059;-75